Time;durP1;ratioP1;P1;durP2;ratioP2;P2;SDS_P1;SDS_P2;PMS_P1;PMS_P2;Temp;Humidity;BMP_temperature;BMP_pressure;BME280_temperature;BME280_humidity;BME280_pressure;Samples;Min_cycle;Max_cycle;Signal;HPM_P1;HPM_P2
2022/05/09 00:00:02;;;;;;;7.10;6.60;;;12.60;99.90;;;;;;5082067;28;20683;-88
2022/05/09 00:02:29;;;;;;;6.63;6.23;;;12.50;99.90;;;;;;5080807;28;20638;-88
2022/05/09 00:04:57;;;;;;;6.83;6.43;;;12.50;99.90;;;;;;5083524;28;20632;-88
2022/05/09 00:07:24;;;;;;;7.57;7.07;;;12.40;99.90;;;;;;5092830;28;20631;-89
2022/05/09 00:09:51;;;;;;;6.83;6.23;;;12.20;99.90;;;;;;5092101;28;21284;-89
2022/05/09 00:12:19;;;;;;;7.50;6.90;;;12.40;99.90;;;;;;5096036;28;20639;-89
2022/05/09 00:14:46;;;;;;;7.47;6.83;;;12.00;99.90;;;;;;5103674;28;20663;-90
2022/05/09 00:17:13;;;;;;;7.20;6.80;;;12.30;99.90;;;;;;5108073;28;20624;-92
2022/05/09 00:19:40;;;;;;;7.80;7.23;;;12.30;99.90;;;;;;5084561;28;20671;-92
2022/05/09 00:22:09;;;;;;;7.90;7.30;;;12.40;99.90;;;;;;5086076;28;20616;-92
2022/05/09 00:24:36;;;;;;;7.30;6.57;;;12.40;99.90;;;;;;5094157;28;20655;-91
2022/05/09 00:27:07;;;;;;;7.80;6.63;;;12.40;99.90;;;;;;5096295;28;20625;-92
2022/05/09 00:29:34;;;;;;;8.00;7.40;;;12.60;99.90;;;;;;5083082;28;20652;-92
2022/05/09 00:32:01;;;;;;;7.80;7.20;;;12.30;99.90;;;;;;5082239;28;20628;-90
2022/05/09 00:34:28;;;;;;;7.83;7.23;;;12.00;99.90;;;;;;5087659;28;20626;-90
2022/05/09 00:36:55;;;;;;;7.63;7.13;;;12.20;99.90;;;;;;5081642;28;20669;-92
2022/05/09 00:39:24;;;;;;;7.47;6.77;;;12.30;99.90;;;;;;5084120;28;20707;-92
2022/05/09 00:41:51;;;;;;;8.23;7.63;;;12.30;99.90;;;;;;5084300;28;21121;-92
2022/05/09 00:44:22;;;;;;;8.40;7.90;;;12.20;99.90;;;;;;5083881;28;20787;-92
2022/05/09 00:46:51;;;;;;;8.13;7.47;;;12.10;99.90;;;;;;5080288;28;20621;-90
2022/05/09 00:49:22;;;;;;;8.23;7.73;;;12.20;99.90;;;;;;5080138;28;20624;-91
2022/05/09 00:51:56;;;;;;;8.17;7.47;;;12.00;99.90;;;;;;5081745;28;21021;-91
2022/05/09 00:54:26;;;;;;;8.67;8.10;;;12.10;99.90;;;;;;5098716;28;20635;-90
2022/05/09 00:56:58;;;;;;;7.97;7.37;;;12.10;99.90;;;;;;5084037;28;22138;-90
2022/05/09 00:59:26;;;;;;;8.27;7.60;;;11.80;99.90;;;;;;5082207;28;21074;-89
2022/05/09 01:01:53;;;;;;;7.90;7.40;;;12.10;99.90;;;;;;5081387;28;20632;-91
2022/05/09 01:04:24;;;;;;;8.80;8.10;;;12.00;99.90;;;;;;5085731;28;20631;-90
2022/05/09 01:06:51;;;;;;;8.90;8.20;;;11.60;99.90;;;;;;5082717;28;20620;-91
2022/05/09 01:09:18;;;;;;;8.23;7.63;;;11.60;99.90;;;;;;5084487;28;21166;-92
2022/05/09 01:11:49;;;;;;;9.53;8.83;;;11.60;99.90;;;;;;5088482;28;21225;-91
2022/05/09 01:14:20;;;;;;;9.00;8.40;;;11.90;99.90;;;;;;5085089;28;20664;-92
2022/05/09 01:16:49;;;;;;;9.90;9.20;;;11.60;99.90;;;;;;5083581;28;20687;-91
2022/05/09 01:19:28;;;;;;;9.30;8.50;;;11.60;99.90;;;;;;5087316;28;20616;-91
2022/05/09 01:21:58;;;;;;;11.80;11.00;;;11.50;99.90;;;;;;5087395;28;20623;-91
2022/05/09 01:24:26;;;;;;;10.97;10.10;;;11.40;99.90;;;;;;5103483;28;20629;-91
2022/05/09 01:26:55;;;;;;;10.30;9.60;;;11.60;99.90;;;;;;5099963;28;20627;-92
2022/05/09 01:29:35;;;;;;;10.70;10.00;;;11.50;99.90;;;;;;5100329;28;20656;-92
2022/05/09 01:32:05;;;;;;;11.40;10.40;;;11.70;99.90;;;;;;5086697;28;20628;-90
2022/05/09 01:34:32;;;;;;;9.80;9.20;;;11.70;99.90;;;;;;5083096;28;20623;-91
2022/05/09 01:37:09;;;;;;;10.40;9.60;;;11.40;99.90;;;;;;5085083;28;20660;-91
2022/05/09 01:39:37;;;;;;;11.67;10.87;;;11.30;99.90;;;;;;5100628;28;20647;-91
2022/05/09 01:42:06;;;;;;;12.70;11.47;;;11.10;99.90;;;;;;5103191;28;21254;-92
2022/05/09 01:44:33;;;;;;;11.07;10.17;;;11.50;99.90;;;;;;5087961;28;20662;-92
2022/05/09 01:49:46;;;;;;;9.90;9.20;;;11.60;99.90;;;;;;5092166;28;20651;-92
2022/05/09 01:52:15;;;;;;;10.30;9.50;;;11.40;99.90;;;;;;5098206;28;20620;-91
2022/05/09 01:54:44;;;;;;;11.23;10.43;;;11.20;99.90;;;;;;5089969;28;21159;-91
2022/05/09 01:57:17;;;;;;;11.40;10.20;;;11.10;99.90;;;;;;5085413;28;20657;-91
2022/05/09 01:59:45;;;;;;;10.67;9.97;;;11.00;99.90;;;;;;5085584;28;20660;-92
2022/05/09 02:02:14;;;;;;;12.03;11.13;;;10.90;99.90;;;;;;5080735;28;20646;-90
2022/05/09 02:04:42;;;;;;;11.10;10.30;;;11.00;99.90;;;;;;5087352;28;20577;-92
2022/05/09 02:07:11;;;;;;;11.10;10.30;;;10.90;99.90;;;;;;5083841;28;20621;-91
2022/05/09 02:09:41;;;;;;;11.43;10.63;;;11.10;99.90;;;;;;5089905;28;20656;-91
2022/05/09 02:12:09;;;;;;;12.03;11.03;;;11.20;99.90;;;;;;5090960;28;20620;-91
2022/05/09 02:14:36;;;;;;;12.43;11.63;;;10.70;99.90;;;;;;5089119;28;20647;-91
2022/05/09 02:17:06;;;;;;;12.47;11.37;;;11.10;99.90;;;;;;5089039;28;20664;-91
2022/05/09 02:19:35;;;;;;;12.23;11.33;;;11.10;99.90;;;;;;5086970;28;20669;-91
2022/05/09 02:22:02;;;;;;;12.27;11.27;;;11.00;99.90;;;;;;5088596;28;20628;-91
2022/05/09 02:24:29;;;;;;;11.03;10.23;;;11.00;99.90;;;;;;5087030;28;20632;-91
2022/05/09 02:26:58;;;;;;;11.03;10.23;;;10.70;99.90;;;;;;5090146;28;20628;-90
2022/05/09 02:29:27;;;;;;;11.90;11.00;;;11.00;99.90;;;;;;5089788;28;20623;-90
2022/05/09 02:31:54;;;;;;;11.47;10.67;;;10.80;99.90;;;;;;5091268;28;21157;-90
2022/05/09 02:34:22;;;;;;;12.73;11.60;;;10.90;99.90;;;;;;5088898;28;20619;-90
2022/05/09 02:36:49;;;;;;;10.80;10.00;;;10.80;99.90;;;;;;5093625;28;20635;-93
2022/05/09 02:39:16;;;;;;;11.50;10.70;;;10.60;99.90;;;;;;5081948;28;20636;-92
2022/05/09 02:41:44;;;;;;;11.73;10.83;;;10.90;99.90;;;;;;5091659;28;20636;-92
2022/05/09 02:44:12;;;;;;;12.10;10.90;;;10.80;99.90;;;;;;5087084;28;20619;-92
2022/05/09 02:46:40;;;;;;;11.10;10.33;;;10.70;99.90;;;;;;5092646;28;20631;-92
2022/05/09 02:49:07;;;;;;;11.60;10.90;;;10.50;99.90;;;;;;5087519;28;20628;-93
2022/05/09 02:51:34;;;;;;;11.00;10.13;;;11.00;99.90;;;;;;5089321;28;20644;-93
2022/05/09 02:54:01;;;;;;;11.40;10.70;;;10.60;99.90;;;;;;5091804;28;20615;-94
2022/05/09 02:56:28;;;;;;;10.07;9.37;;;11.10;99.90;;;;;;5106767;28;20644;-92
2022/05/09 02:58:56;;;;;;;11.00;10.03;;;10.90;99.90;;;;;;5107093;28;21326;-94
2022/05/09 03:01:24;;;;;;;11.50;10.60;;;10.30;99.90;;;;;;5092930;28;20660;-93
2022/05/09 03:06:35;;;;;;;10.93;9.90;;;10.40;99.90;;;;;;5095735;28;20595;-93
2022/05/09 03:09:02;;;;;;;11.57;10.67;;;10.70;99.90;;;;;;5089983;28;20615;-92
2022/05/09 03:11:29;;;;;;;11.30;10.50;;;10.40;99.90;;;;;;5092526;28;21228;-93
2022/05/09 03:13:55;;;;;;;10.90;10.10;;;10.60;99.90;;;;;;5092496;28;20638;-93
2022/05/09 03:16:24;;;;;;;11.00;10.27;;;10.30;99.90;;;;;;5091471;28;20604;-91
2022/05/09 03:18:52;;;;;;;10.53;9.93;;;10.40;99.90;;;;;;5088704;28;20648;-93
2022/05/09 03:21:19;;;;;;;11.70;11.00;;;10.60;99.90;;;;;;5090879;28;20726;-92
2022/05/09 03:23:46;;;;;;;10.90;10.10;;;10.30;99.90;;;;;;5092103;28;20654;-92
2022/05/09 03:26:13;;;;;;;10.63;9.93;;;10.60;99.90;;;;;;5095499;28;20635;-92
2022/05/09 03:28:40;;;;;;;10.37;9.70;;;10.60;99.90;;;;;;5098261;28;20632;-93
2022/05/09 03:31:07;;;;;;;12.00;11.00;;;10.40;99.90;;;;;;5090257;28;20663;-93
2022/05/09 03:33:39;;;;;;;11.77;10.77;;;10.40;99.90;;;;;;5089279;28;21183;-92
2022/05/09 03:36:06;;;;;;;11.47;10.57;;;10.20;99.90;;;;;;5079619;28;20635;-92
2022/05/09 03:38:33;;;;;;;11.50;10.70;;;10.60;99.90;;;;;;5083137;28;21317;-92
2022/05/09 03:41:00;;;;;;;10.30;9.63;;;10.50;99.90;;;;;;5079244;28;20672;-91
2022/05/09 03:43:27;;;;;;;11.13;10.33;;;10.80;99.90;;;;;;5085023;28;20616;-91
2022/05/09 03:45:56;;;;;;;11.70;10.80;;;10.20;99.90;;;;;;5090297;28;20958;-90
2022/05/09 03:48:23;;;;;;;11.30;10.50;;;10.10;99.90;;;;;;5087912;28;20636;-91
2022/05/09 03:50:52;;;;;;;10.53;9.90;;;10.00;99.90;;;;;;5083676;28;20636;-90
2022/05/09 03:53:19;;;;;;;11.47;10.67;;;10.50;99.90;;;;;;5085411;28;20655;-90
2022/05/09 03:55:47;;;;;;;11.23;10.43;;;10.10;99.90;;;;;;5088077;28;20604;-91
2022/05/09 03:58:14;;;;;;;11.80;10.90;;;10.20;99.90;;;;;;5092062;28;20631;-91
2022/05/09 04:00:43;;;;;;;11.80;11.00;;;10.10;99.90;;;;;;5100610;28;20654;-91
2022/05/09 04:03:11;;;;;;;10.90;10.20;;;10.00;99.90;;;;;;5099545;28;20658;-90
2022/05/09 04:05:39;;;;;;;12.00;10.90;;;10.40;99.90;;;;;;5093450;28;20632;-90
2022/05/09 04:08:11;;;;;;;11.40;10.60;;;10.10;99.90;;;;;;5085277;28;20623;-91
2022/05/09 04:10:40;;;;;;;12.10;11.17;;;10.00;99.90;;;;;;5086192;28;20705;-91
2022/05/09 04:13:10;;;;;;;12.80;11.80;;;9.90;99.90;;;;;;5090876;28;20616;-92
2022/05/09 04:18:24;;;;;;;12.50;11.33;;;10.10;99.90;;;;;;5094309;28;20683;-91
2022/05/09 04:20:52;;;;;;;12.20;11.10;;;10.40;99.90;;;;;;5087652;28;20659;-91
2022/05/09 04:23:21;;;;;;;12.33;11.13;;;10.00;99.90;;;;;;5087563;28;20585;-90
2022/05/09 04:25:49;;;;;;;12.60;11.60;;;10.60;99.90;;;;;;5090500;28;20663;-90
2022/05/09 04:28:18;;;;;;;11.47;10.57;;;10.10;99.90;;;;;;5093522;28;20652;-91
2022/05/09 04:30:46;;;;;;;11.73;10.60;;;10.10;99.90;;;;;;5089443;28;20651;-91
2022/05/09 04:33:13;;;;;;;12.07;11.00;;;9.90;99.90;;;;;;5088149;28;20739;-90
2022/05/09 04:35:42;;;;;;;12.30;11.40;;;10.20;99.90;;;;;;5087671;28;20639;-91
2022/05/09 04:38:14;;;;;;;11.77;10.77;;;10.10;99.90;;;;;;5087499;28;20668;-92
2022/05/09 04:40:45;;;;;;;12.87;12.07;;;10.40;99.90;;;;;;5087174;28;20762;-93
2022/05/09 04:43:12;;;;;;;14.00;12.80;;;10.10;99.90;;;;;;5087374;28;21083;-94
2022/05/09 04:45:40;;;;;;;13.50;12.70;;;10.30;99.90;;;;;;5089705;28;20712;-93
2022/05/09 04:48:07;;;;;;;13.97;12.70;;;10.60;99.90;;;;;;5084799;28;21198;-93
2022/05/09 04:50:36;;;;;;;13.10;12.10;;;10.60;99.90;;;;;;5094878;28;20651;-93
2022/05/09 04:53:05;;;;;;;15.00;13.90;;;10.20;99.90;;;;;;5097273;28;20616;-94
2022/05/09 04:55:32;;;;;;;14.03;13.00;;;10.60;99.90;;;;;;5091656;28;20639;-91
2022/05/09 04:58:02;;;;;;;14.10;13.20;;;10.40;99.90;;;;;;5094068;28;20656;-92
2022/05/09 05:00:31;;;;;;;14.70;13.57;;;10.20;99.90;;;;;;5092976;28;20655;-92
2022/05/09 05:02:59;;;;;;;13.77;12.70;;;10.50;99.90;;;;;;5088114;28;20632;-90
2022/05/09 05:05:27;;;;;;;14.80;13.73;;;10.30;99.90;;;;;;5091325;28;20686;-93
2022/05/09 05:08:01;;;;;;;14.10;12.90;;;10.70;99.90;;;;;;5093303;28;20624;-93
2022/05/09 05:10:32;;;;;;;15.30;14.20;;;10.80;99.90;;;;;;5092321;28;20659;-92
2022/05/09 05:13:03;;;;;;;14.30;13.00;;;11.00;99.90;;;;;;5094709;28;20879;-92
2022/05/09 05:15:31;;;;;;;14.50;13.33;;;10.90;99.90;;;;;;5090235;28;20631;-94
2022/05/09 05:17:58;;;;;;;14.80;13.33;;;10.70;99.90;;;;;;5090814;28;20656;-91
2022/05/09 05:20:27;;;;;;;16.00;14.33;;;10.80;99.90;;;;;;5102828;28;20686;-91
2022/05/09 05:22:55;;;;;;;15.90;14.30;;;11.10;99.90;;;;;;5092490;28;20724;-92
2022/05/09 05:25:24;;;;;;;15.20;13.90;;;11.20;99.90;;;;;;5090963;28;20965;-92
2022/05/09 05:27:51;;;;;;;15.00;13.80;;;11.30;99.90;;;;;;5107536;28;20629;-93
2022/05/09 05:30:25;;;;;;;15.00;13.70;;;10.90;99.90;;;;;;5103231;28;20649;-91
2022/05/09 05:32:58;;;;;;;15.30;14.17;;;11.30;99.90;;;;;;5089565;28;20703;-93
2022/05/09 05:35:26;;;;;;;15.70;14.60;;;11.10;99.90;;;;;;5093978;28;20628;-92
2022/05/09 05:37:58;;;;;;;15.53;14.37;;;11.70;99.90;;;;;;5108931;28;20663;-91
2022/05/09 05:40:26;;;;;;;16.00;14.70;;;11.60;99.90;;;;;;5095749;28;20622;-93
2022/05/09 05:42:53;;;;;;;15.40;14.10;;;11.80;99.90;;;;;;5104652;28;20681;-91
2022/05/09 05:45:23;;;;;;;15.03;13.90;;;11.80;99.90;;;;;;5098647;28;20663;-91
2022/05/09 05:47:52;;;;;;;16.10;14.50;;;11.90;99.90;;;;;;5087012;28;20617;-92
2022/05/09 05:50:21;;;;;;;15.53;14.43;;;12.00;99.90;;;;;;5091486;28;20636;-91
2022/05/09 05:52:48;;;;;;;14.83;13.53;;;11.90;99.90;;;;;;5090837;28;20615;-92
2022/05/09 05:55:18;;;;;;;15.23;13.63;;;11.90;99.90;;;;;;5085262;28;20636;-92
2022/05/09 05:57:46;;;;;;;14.03;12.97;;;12.30;99.90;;;;;;5085734;28;20652;-93
2022/05/09 06:00:17;;;;;;;15.93;14.83;;;12.50;99.90;;;;;;5088378;28;20676;-92
2022/05/09 06:02:44;;;;;;;14.33;12.93;;;12.60;99.90;;;;;;5088345;28;20644;-92
2022/05/09 06:05:14;;;;;;;15.63;13.77;;;12.80;99.90;;;;;;5090012;28;20614;-92
2022/05/09 06:07:41;;;;;;;13.20;12.30;;;12.90;99.90;;;;;;5086025;28;20636;-93
2022/05/09 06:10:10;;;;;;;15.07;13.40;;;13.00;99.90;;;;;;5088846;28;20656;-92
2022/05/09 06:12:37;;;;;;;14.80;13.50;;;13.10;99.90;;;;;;5086521;28;20632;-91
2022/05/09 06:17:49;;;;;;;14.90;13.40;;;13.30;99.90;;;;;;5078409;28;20607;-91
2022/05/09 06:20:18;;;;;;;15.03;13.63;;;13.50;99.90;;;;;;5087573;28;20699;-91
2022/05/09 06:22:45;;;;;;;13.80;12.67;;;13.70;99.90;;;;;;5087542;28;20639;-92
2022/05/09 06:25:18;;;;;;;14.23;13.07;;;13.80;99.90;;;;;;5089232;28;20579;-91
2022/05/09 06:27:45;;;;;;;12.90;11.80;;;14.00;99.90;;;;;;5089049;28;20585;-91
2022/05/09 06:30:14;;;;;;;13.90;12.90;;;14.10;99.90;;;;;;5085401;28;20667;-92
2022/05/09 06:32:42;;;;;;;12.90;11.93;;;14.20;99.90;;;;;;5084547;28;20615;-91
2022/05/09 06:35:12;;;;;;;13.20;12.10;;;14.40;99.90;;;;;;5086063;28;20580;-91
2022/05/09 06:37:40;;;;;;;13.10;12.03;;;14.50;99.90;;;;;;5090405;28;20677;-91
2022/05/09 06:40:10;;;;;;;11.17;10.33;;;14.70;99.90;;;;;;5088874;28;21207;-91
2022/05/09 06:42:37;;;;;;;10.37;9.57;;;14.90;99.90;;;;;;5088112;28;20650;-92
2022/05/09 06:45:06;;;;;;;13.93;10.97;;;15.00;99.90;;;;;;5083441;28;21030;-93
2022/05/09 06:47:33;;;;;;;11.67;10.67;;;15.20;99.90;;;;;;5081476;28;20711;-92
2022/05/09 06:50:01;;;;;;;10.50;9.53;;;15.30;99.90;;;;;;5086344;28;20659;-91
2022/05/09 06:52:28;;;;;;;14.00;10.87;;;15.50;99.90;;;;;;5086891;28;20625;-91
2022/05/09 06:54:56;;;;;;;12.13;11.10;;;15.60;99.90;;;;;;5089333;28;20624;-92
2022/05/09 06:57:23;;;;;;;10.80;9.80;;;15.80;99.90;;;;;;5099779;28;20625;-93
2022/05/09 06:59:50;;;;;;;8.90;8.20;;;15.90;99.90;;;;;;5099921;28;20672;-91
2022/05/09 07:02:17;;;;;;;9.63;8.83;;;16.10;99.90;;;;;;5088522;28;20649;-90
2022/05/09 07:04:44;;;;;;;7.87;7.20;;;16.20;99.90;;;;;;5082628;28;20632;-91
2022/05/09 07:07:11;;;;;;;8.83;8.13;;;16.40;99.90;;;;;;5087455;28;20616;-91
2022/05/09 07:09:38;;;;;;;8.40;7.70;;;16.50;99.90;;;;;;5088596;28;20652;-91
2022/05/09 07:12:07;;;;;;;7.93;7.07;;;16.60;99.90;;;;;;5090747;28;20608;-91
2022/05/09 07:14:34;;;;;;;7.83;7.10;;;16.70;99.90;;;;;;5090344;28;21227;-91
2022/05/09 07:17:01;;;;;;;9.97;8.00;;;16.80;99.90;;;;;;5091257;28;20955;-91
2022/05/09 07:19:27;;;;;;;7.97;7.10;;;17.00;99.90;;;;;;5087663;28;20660;-90
2022/05/09 07:21:55;;;;;;;6.80;6.20;;;17.10;99.90;;;;;;5088934;28;21158;-89
2022/05/09 07:24:21;;;;;;;9.17;8.37;;;17.20;99.90;;;;;;5089039;28;21159;-89
2022/05/09 07:26:48;;;;;;;7.03;6.23;;;17.10;99.90;;;;;;5086061;28;20701;-89
2022/05/09 07:29:18;;;;;;;6.60;6.10;;;17.20;99.90;;;;;;5089407;28;20954;-89
2022/05/09 07:31:44;;;;;;;8.20;7.43;;;17.40;99.90;;;;;;5082597;28;20624;-89
2022/05/09 07:34:11;;;;;;;7.87;7.17;;;17.40;99.90;;;;;;5086764;28;20656;-90
2022/05/09 07:36:38;;;;;;;6.43;5.93;;;17.50;99.90;;;;;;5089836;28;20639;-89
2022/05/09 07:39:05;;;;;;;6.70;6.20;;;17.70;99.90;;;;;;5084120;28;20652;-89
2022/05/09 07:41:32;;;;;;;7.00;6.30;;;17.80;99.90;;;;;;5085474;28;20639;-89
2022/05/09 07:43:59;;;;;;;9.43;6.90;;;17.90;99.90;;;;;;5084821;28;21362;-88
2022/05/09 07:46:27;;;;;;;7.73;7.13;;;18.00;99.90;;;;;;5086550;28;20623;-90
2022/05/09 07:48:54;;;;;;;9.00;7.57;;;18.10;99.90;;;;;;5087416;28;20674;-89
2022/05/09 07:51:21;;;;;;;9.83;8.50;;;18.00;99.90;;;;;;5082613;28;20628;-89
2022/05/09 07:53:48;;;;;;;8.30;7.70;;;18.10;99.90;;;;;;5083753;28;20630;-89
2022/05/09 07:56:15;;;;;;;9.20;8.30;;;18.10;99.90;;;;;;5084552;28;20644;-87
2022/05/09 07:58:43;;;;;;;11.70;7.67;;;18.20;99.90;;;;;;5081463;28;20625;-89
2022/05/09 08:01:10;;;;;;;10.17;8.47;;;18.20;99.90;;;;;;5085626;28;20628;-89
2022/05/09 08:03:38;;;;;;;7.33;6.63;;;18.30;99.90;;;;;;5084734;28;20656;-89
2022/05/09 08:06:06;;;;;;;9.17;8.30;;;18.30;99.90;;;;;;5086339;28;20983;-89
2022/05/09 08:08:36;;;;;;;8.17;6.33;;;18.40;99.90;;;;;;5084661;28;20636;-89
2022/05/09 08:11:04;;;;;;;8.83;8.13;;;18.50;99.90;;;;;;5081328;28;20635;-89
2022/05/09 08:13:33;;;;;;;8.40;7.47;;;18.60;99.90;;;;;;5082896;28;20620;-89
2022/05/09 08:16:01;;;;;;;9.60;8.70;;;18.70;99.90;;;;;;5090283;28;20620;-89
2022/05/09 08:18:29;;;;;;;8.20;7.50;;;18.80;99.90;;;;;;5091670;28;21142;-89
2022/05/09 08:20:59;;;;;;;6.43;5.90;;;18.90;99.90;;;;;;5082045;28;20660;-89
2022/05/09 08:23:27;;;;;;;7.70;7.00;;;19.00;99.90;;;;;;5081815;28;20635;-89
2022/05/09 08:25:56;;;;;;;5.97;5.47;;;19.00;99.90;;;;;;5082615;28;20624;-88
2022/05/09 08:28:24;;;;;;;7.70;6.20;;;19.20;99.90;;;;;;5088977;28;20624;-89
2022/05/09 08:30:52;;;;;;;6.67;6.17;;;19.30;99.90;;;;;;5083050;28;20624;-89
2022/05/09 08:33:22;;;;;;;6.17;5.67;;;19.40;99.90;;;;;;5074806;28;21591;-88
2022/05/09 08:35:50;;;;;;;7.50;6.77;;;19.60;99.90;;;;;;5086385;28;20612;-89
2022/05/09 08:38:20;;;;;;;6.83;6.23;;;19.70;99.90;;;;;;5079382;28;21238;-88
2022/05/09 08:40:57;;;;;;;6.27;5.60;;;19.70;99.90;;;;;;5078207;28;20623;-88
2022/05/09 08:43:39;;;;;;;7.17;6.57;;;19.90;99.90;;;;;;5081417;28;21125;-88
2022/05/09 08:46:16;;;;;;;6.23;5.73;;;20.00;99.90;;;;;;5078637;28;20652;-88
2022/05/09 08:49:02;;;;;;;7.70;7.13;;;20.00;99.90;;;;;;5082425;28;20634;-88
2022/05/09 08:51:42;;;;;;;5.90;5.50;;;20.10;99.90;;;;;;5081997;28;21038;-89
2022/05/09 08:54:18;;;;;;;7.30;6.77;;;20.20;99.90;;;;;;5080842;28;20693;-89
2022/05/09 08:56:47;;;;;;;8.40;7.70;;;20.30;99.90;;;;;;5080537;28;21280;-88
2022/05/09 08:59:24;;;;;;;7.23;6.73;;;20.30;99.90;;;;;;5083755;28;21305;-88
2022/05/09 09:01:54;;;;;;;7.00;6.50;;;20.40;99.90;;;;;;5084385;28;21062;-88
2022/05/09 09:04:23;;;;;;;9.03;5.60;;;20.40;99.90;;;;;;5079878;28;20788;-89
2022/05/09 09:07:12;;;;;;;9.70;7.93;;;20.40;99.90;;;;;;5084313;28;21187;-88
2022/05/09 09:10:04;;;;;;;7.43;6.83;;;20.50;99.90;;;;;;5080460;28;20646;-88
2022/05/09 09:12:41;;;;;;;10.03;7.70;;;20.60;99.90;;;;;;5085002;28;20657;-88
2022/05/09 09:15:13;;;;;;;6.67;6.27;;;20.60;99.90;;;;;;5085162;28;20668;-88
2022/05/09 09:18:05;;;;;;;7.50;6.80;;;20.70;99.90;;;;;;5082516;28;20648;-88
2022/05/09 09:20:41;;;;;;;8.47;6.67;;;20.70;99.90;;;;;;5084373;28;20656;-88
2022/05/09 09:23:20;;;;;;;6.53;6.10;;;20.80;99.90;;;;;;5082556;28;20635;-88
2022/05/09 09:26:03;;;;;;;6.80;6.13;;;20.90;99.90;;;;;;5083012;28;20608;-88
2022/05/09 09:28:41;;;;;;;7.00;6.50;;;21.10;99.90;;;;;;5085382;28;20932;-89
2022/05/09 09:31:11;;;;;;;6.70;5.00;;;21.20;99.90;;;;;;5081509;28;20630;-88
2022/05/09 09:33:43;;;;;;;6.80;5.37;;;21.30;99.90;;;;;;5079200;28;21091;-90
2022/05/09 09:36:13;;;;;;;7.13;5.40;;;21.40;99.90;;;;;;5085805;28;20663;-87
2022/05/09 09:38:46;;;;;;;5.60;5.20;;;21.40;99.90;;;;;;5088291;28;20781;-87
2022/05/09 09:41:20;;;;;;;5.77;5.33;;;21.40;99.90;;;;;;5087625;28;20685;-88
2022/05/09 09:43:48;;;;;;;5.30;5.00;;;21.50;99.90;;;;;;5082451;28;20624;-88
2022/05/09 09:46:16;;;;;;;6.40;6.00;;;21.50;99.90;;;;;;5090275;28;20647;-88
2022/05/09 09:48:43;;;;;;;6.23;5.80;;;21.50;99.90;;;;;;5087967;28;20976;-87
2022/05/09 09:51:12;;;;;;;5.60;5.13;;;21.60;99.90;;;;;;5082803;28;20628;-87
2022/05/09 09:53:42;;;;;;;6.50;6.00;;;21.70;99.90;;;;;;5083979;28;20628;-87
2022/05/09 09:56:25;;;;;;;6.40;6.00;;;21.90;99.90;;;;;;5085987;28;20679;-87
2022/05/09 09:58:57;;;;;;;6.53;6.07;;;22.00;99.90;;;;;;5083155;28;20631;-87
2022/05/09 10:01:27;;;;;;;6.20;5.80;;;22.00;99.90;;;;;;5085296;28;20667;-87
2022/05/09 10:04:09;;;;;;;6.10;5.53;;;22.00;99.90;;;;;;5077338;28;20696;-88
2022/05/09 10:06:36;;;;;;;5.43;4.97;;;22.20;99.90;;;;;;5074764;28;21511;-88
2022/05/09 10:09:06;;;;;;;6.10;5.50;;;22.40;99.90;;;;;;5082104;28;20620;-87
2022/05/09 10:11:34;;;;;;;5.30;5.00;;;22.60;99.90;;;;;;5079527;28;20632;-89
2022/05/09 10:14:05;;;;;;;6.30;5.90;;;22.70;99.90;;;;;;5087256;28;20616;-87
2022/05/09 10:16:34;;;;;;;5.77;5.27;;;22.80;99.80;;;;;;5087118;28;20646;-86
2022/05/09 10:19:02;;;;;;;5.90;5.40;;;22.90;99.70;;;;;;5081030;28;20648;-85
2022/05/09 10:27:27;;;;;;;6.17;5.70;;;23.60;98.60;;;;;;5082368;28;20584;-86
2022/05/09 10:29:57;;;;;;;5.57;5.07;;;23.60;93.80;;;;;;5082482;28;20655;-88
2022/05/09 10:32:30;;;;;;;5.70;5.40;;;23.60;95.50;;;;;;5086124;28;20594;-87
2022/05/09 10:35:02;;;;;;;6.20;5.40;;;23.60;94.00;;;;;;5082894;28;20628;-87
2022/05/09 10:37:40;;;;;;;5.73;5.27;;;23.60;93.60;;;;;;5087171;28;20648;-88
2022/05/09 10:40:12;;;;;;;6.10;5.50;;;23.70;91.40;;;;;;5083962;28;20683;-88
2022/05/09 10:42:43;;;;;;;7.03;6.53;;;23.80;93.60;;;;;;5086888;28;20979;-87
2022/05/09 10:45:17;;;;;;;5.30;4.90;;;24.00;91.40;;;;;;5084288;28;20611;-87
2022/05/09 10:47:52;;;;;;;5.40;5.00;;;23.90;91.50;;;;;;5082334;28;20670;-87
2022/05/09 10:50:25;;;;;;;5.80;5.40;;;24.20;91.10;;;;;;5085417;28;21062;-86
2022/05/09 10:53:03;;;;;;;5.10;4.70;;;24.20;89.70;;;;;;5077246;28;20640;-87
2022/05/09 10:55:37;;;;;;;5.77;5.17;;;24.30;90.90;;;;;;5089030;28;20647;-87
2022/05/09 10:58:08;;;;;;;5.63;5.10;;;24.30;88.60;;;;;;5085949;28;20992;-88
2022/05/09 11:00:42;;;;;;;5.80;5.40;;;24.30;87.40;;;;;;5087189;28;21104;-87
2022/05/09 11:03:18;;;;;;;5.33;4.90;;;24.30;86.50;;;;;;5088944;28;20643;-86
2022/05/09 11:06:02;;;;;;;5.13;4.80;;;24.40;87.20;;;;;;5086366;28;20612;-88
2022/05/09 11:08:35;;;;;;;5.70;5.00;;;24.80;89.00;;;;;;5090041;28;20611;-90
2022/05/09 11:11:12;;;;;;;4.77;4.37;;;25.30;80.80;;;;;;5084634;28;20628;-89
2022/05/09 11:13:50;;;;;;;4.57;4.27;;;25.80;82.40;;;;;;5086912;28;21082;-89
2022/05/09 11:16:29;;;;;;;5.27;4.83;;;26.20;77.70;;;;;;5088782;28;20680;-90
2022/05/09 11:19:12;;;;;;;4.63;4.03;;;26.50;74.90;;;;;;5084672;28;20647;-90
2022/05/09 11:21:49;;;;;;;5.37;4.77;;;26.50;76.10;;;;;;5083243;28;21273;-90
2022/05/09 11:24:30;;;;;;;5.80;5.40;;;26.40;75.50;;;;;;5082160;28;21628;-90
2022/05/09 11:27:08;;;;;;;5.43;5.03;;;26.60;77.90;;;;;;5089175;28;20616;-89
2022/05/09 11:29:48;;;;;;;5.83;5.30;;;26.90;74.10;;;;;;5088305;28;21163;-90
2022/05/09 11:32:36;;;;;;;4.80;4.40;;;27.20;71.00;;;;;;5092424;28;20620;-91
2022/05/09 11:35:31;;;;;;;5.70;4.50;;;27.50;65.40;;;;;;5093218;28;20600;-89
2022/05/09 11:38:26;;;;;;;5.10;4.70;;;27.50;66.30;;;;;;5090544;28;20639;-90
2022/05/09 11:41:01;;;;;;;5.30;4.80;;;27.20;66.80;;;;;;5078354;28;20695;-89
2022/05/09 11:43:53;;;;;;;4.73;4.40;;;27.00;65.70;;;;;;5085501;28;20627;-89
2022/05/09 11:46:31;;;;;;;4.73;4.43;;;27.00;67.60;;;;;;5083212;28;20718;-90
2022/05/09 11:49:11;;;;;;;5.53;4.30;;;26.80;64.70;;;;;;5086355;28;20658;-90
2022/05/09 11:51:46;;;;;;;5.13;4.60;;;26.50;64.90;;;;;;5083980;28;20628;-88
2022/05/09 11:54:16;;;;;;;4.80;4.40;;;26.40;66.20;;;;;;5082945;28;20619;-88
2022/05/09 11:56:47;;;;;;;5.33;4.83;;;26.00;66.30;;;;;;5084175;28;20608;-88
2022/05/09 11:59:21;;;;;;;5.40;4.90;;;25.90;67.60;;;;;;5082937;28;21015;-88
2022/05/09 12:02:04;;;;;;;6.20;5.70;;;25.70;66.30;;;;;;5084806;28;20737;-89
2022/05/09 12:04:40;;;;;;;4.70;4.40;;;25.60;68.50;;;;;;5084048;28;20644;-88
2022/05/09 12:07:45;;;;;;;4.23;4.03;;;25.60;69.50;;;;;;5082191;28;20637;-89
2022/05/09 12:10:28;;;;;;;5.00;4.60;;;25.50;69.60;;;;;;5006962;28;20651;-89
2022/05/09 12:13:00;;;;;;;4.63;4.33;;;25.40;71.30;;;;;;5081923;28;20647;-89
2022/05/09 12:15:55;;;;;;;4.73;4.30;;;25.30;72.30;;;;;;5088432;28;20619;-89
2022/05/09 12:18:31;;;;;;;4.80;4.50;;;25.20;72.00;;;;;;5082428;28;20627;-89
2022/05/09 12:21:13;;;;;;;4.20;3.90;;;25.20;70.20;;;;;;5080772;28;20652;-89
2022/05/09 12:24:08;;;;;;;4.97;4.57;;;25.10;71.90;;;;;;5081958;28;20720;-90
2022/05/09 12:26:38;;;;;;;5.30;4.77;;;25.10;71.50;;;;;;5085597;28;20631;-89
2022/05/09 12:29:24;;;;;;;4.63;4.33;;;25.10;73.10;;;;;;5080715;28;20660;-89
2022/05/09 12:31:54;;;;;;;4.93;4.53;;;25.10;71.10;;;;;;5083507;28;20635;-89
2022/05/09 12:34:29;;;;;;;4.97;4.57;;;25.00;71.60;;;;;;5079505;28;20668;-89
2022/05/09 12:36:57;;;;;;;4.60;4.20;;;25.00;70.90;;;;;;5079440;28;20620;-90
2022/05/09 12:39:32;;;;;;;4.90;4.50;;;25.10;73.60;;;;;;5080927;28;21411;-90
2022/05/09 12:42:04;;;;;;;5.13;4.73;;;25.20;72.80;;;;;;5077933;28;20669;-90
2022/05/09 12:44:36;;;;;;;5.73;4.53;;;25.30;73.40;;;;;;5080771;28;20596;-91
2022/05/09 12:47:06;;;;;;;5.20;4.80;;;25.30;69.00;;;;;;5080988;28;20628;-89
2022/05/09 12:49:37;;;;;;;4.73;4.33;;;25.50;69.70;;;;;;5076539;28;20658;-90
2022/05/09 12:52:06;;;;;;;4.40;4.10;;;25.40;70.10;;;;;;5082244;28;20651;-90
2022/05/09 12:54:35;;;;;;;4.60;4.20;;;25.50;70.10;;;;;;5080175;28;20631;-89
2022/05/09 12:57:05;;;;;;;4.67;4.27;;;25.50;69.60;;;;;;5080544;28;20973;-89
2022/05/09 12:59:47;;;;;;;4.93;4.53;;;25.60;67.90;;;;;;5082304;28;20657;-90
2022/05/09 13:02:21;;;;;;;4.10;3.80;;;25.70;66.40;;;;;;5080374;28;21204;-88
2022/05/09 13:04:49;;;;;;;4.83;4.43;;;26.00;69.20;;;;;;5079939;28;20663;-89
2022/05/09 13:07:18;;;;;;;6.27;4.13;;;26.30;66.50;;;;;;5078598;28;20632;-89
2022/05/09 13:09:51;;;;;;;5.50;5.00;;;26.50;67.20;;;;;;5082167;28;20659;-88
2022/05/09 13:12:25;;;;;;;6.83;4.73;;;26.90;68.10;;;;;;5080160;28;20651;-89